Time;durP1;ratioP1;P1;durP2;ratioP2;P2;SDS_P1;SDS_P2;PMS_P1;PMS_P2;Temp;Humidity;BMP_temperature;BMP_pressure;BME280_temperature;BME280_humidity;BME280_pressure;Samples;Min_cycle;Max_cycle;Signal;HPM_P1;HPM_P2
2023/04/28 00:00:36;;;;;;;11.37;6.50;;;;;8.50;96318.00;;;;8297488;28;20210;-72
2023/04/28 00:04:46;;;;;;;17.03;7.67;;;;;8.50;96317.00;;;;8290340;28;20325;-73
2023/04/28 00:08:50;;;;;;;13.13;8.07;;;;;8.60;96321.00;;;;8279617;28;20200;-72
2023/04/28 00:12:53;;;;;;;13.10;7.17;;;;;8.70;96320.00;;;;8291601;28;20579;-72
2023/04/28 00:16:58;;;;;;;15.23;7.37;;;;;8.90;96313.00;;;;8291106;28;20599;-73
2023/04/28 00:21:03;;;;;;;10.27;7.57;;;;;8.90;96307.00;;;;8290598;28;20194;-73
2023/04/28 00:25:08;;;;;;;12.97;6.67;;;;;8.90;96306.00;;;;8296823;28;20190;-73
2023/04/28 00:29:13;;;;;;;11.93;7.03;;;;;8.80;96303.00;;;;8289139;28;20280;-73
2023/04/28 00:33:24;;;;;;;9.30;6.30;;;;;8.80;96304.00;;;;8292521;28;20281;-73
2023/04/28 00:37:35;;;;;;;11.03;8.13;;;;;8.80;96303.00;;;;8287470;28;20202;-71
2023/04/28 00:41:41;;;;;;;10.03;7.43;;;;;8.80;96306.00;;;;8268688;28;20640;-72
2023/04/28 00:45:45;;;;;;;13.33;6.90;;;;;8.90;96303.00;;;;8290723;28;20209;-72
2023/04/28 00:49:51;;;;;;;15.20;6.73;;;;;8.80;96303.00;;;;8289776;28;20282;-72
2023/04/28 00:53:58;;;;;;;10.97;7.30;;;;;8.90;96299.00;;;;8284868;28;20221;-70
2023/04/28 00:58:04;;;;;;;10.93;6.30;;;;;8.90;96288.00;;;;8289824;28;20198;-71
2023/04/28 01:02:16;;;;;;;9.37;5.93;;;;;9.00;96282.00;;;;8289041;28;20226;-71
2023/04/28 01:06:20;;;;;;;11.03;6.73;;;;;9.00;96290.00;;;;8288515;28;20297;-70
2023/04/28 01:10:27;;;;;;;11.27;6.47;;;;;9.10;96280.00;;;;8295001;28;20199;-72
2023/04/28 01:14:36;;;;;;;10.80;6.00;;;;;9.20;96284.00;;;;8272403;28;20864;-71
2023/04/28 01:18:46;;;;;;;11.70;6.87;;;;;9.20;96287.00;;;;8290667;28;20556;-72
2023/04/28 01:22:50;;;;;;;9.77;6.67;;;;;9.30;96279.00;;;;8272538;28;20202;-71
2023/04/28 01:26:56;;;;;;;12.33;6.10;;;;;9.30;96286.00;;;;8289660;28;20709;-72
2023/04/28 01:30:59;;;;;;;13.80;6.60;;;;;9.40;96275.00;;;;8288424;28;20218;-73
2023/04/28 01:35:04;;;;;;;12.83;6.47;;;;;9.40;96276.00;;;;8286399;28;20675;-72
2023/04/28 01:39:09;;;;;;;17.80;7.83;;;;;9.40;96263.00;;;;8310785;28;20247;-72
2023/04/28 01:43:17;;;;;;;11.70;6.47;;;;;9.40;96268.00;;;;8288605;28;20243;-71
2023/04/28 01:47:20;;;;;;;11.03;6.83;;;;;9.50;96269.00;;;;8286448;28;20202;-72
2023/04/28 01:51:26;;;;;;;14.10;6.70;;;;;9.50;96267.00;;;;8287814;28;20313;-72
2023/04/28 01:55:29;;;;;;;13.23;6.83;;;;;9.50;96265.00;;;;8294423;28;20201;-72
2023/04/28 01:59:34;;;;;;;12.30;6.57;;;;;9.50;96273.00;;;;8307715;28;20213;-72
2023/04/28 02:03:40;;;;;;;12.77;6.20;;;;;9.50;96260.00;;;;8291249;28;20765;-71
2023/04/28 02:07:45;;;;;;;10.47;6.60;;;;;9.50;96260.00;;;;8291622;28;21023;-73
2023/04/28 02:11:48;;;;;;;12.83;5.87;;;;;9.50;96249.00;;;;8289283;28;20312;-72
2023/04/28 02:15:52;;;;;;;11.23;6.30;;;;;9.50;96249.00;;;;8286556;28;20202;-72
2023/04/28 02:19:56;;;;;;;11.80;6.17;;;;;9.50;96253.00;;;;8291885;28;20195;-73
2023/04/28 02:23:59;;;;;;;11.53;6.30;;;;;9.50;96256.00;;;;8287256;28;20649;-71
2023/04/28 02:28:02;;;;;;;9.10;5.77;;;;;9.50;96250.00;;;;8290685;28;20206;-72
2023/04/28 02:32:07;;;;;;;15.70;6.03;;;;;9.50;96244.00;;;;8289677;28;20226;-72
2023/04/28 02:36:11;;;;;;;17.42;6.45;;;;;9.50;96243.00;;;;8290266;28;20198;-72
2023/04/28 02:40:14;;;;;;;11.57;6.37;;;;;9.40;96238.00;;;;8291554;28;20221;-72
2023/04/28 02:44:20;;;;;;;12.07;6.47;;;;;9.40;96238.00;;;;8287687;28;20218;-71
2023/04/28 02:48:25;;;;;;;12.27;5.97;;;;;9.40;96246.00;;;;8290745;28;20584;-71
2023/04/28 02:52:28;;;;;;;11.80;6.57;;;;;9.30;96239.00;;;;8285342;28;20229;-72
2023/04/28 02:56:32;;;;;;;11.83;5.93;;;;;9.30;96242.00;;;;8289914;28;20198;-71
2023/04/28 03:00:35;;;;;;;11.47;6.00;;;;;9.30;96237.00;;;;8287082;28;20296;-70
2023/04/28 03:04:39;;;;;;;13.53;6.20;;;;;9.30;96237.00;;;;8309388;22;20241;-72
2023/04/28 03:08:42;;;;;;;8.47;5.60;;;;;9.30;96231.00;;;;8286149;28;20209;-73
2023/04/28 03:12:49;;;;;;;10.03;5.83;;;;;9.40;96212.00;;;;8292767;28;20225;-72
2023/04/28 03:16:55;;;;;;;11.77;5.90;;;;;9.40;96227.00;;;;8292640;28;20206;-72
2023/04/28 03:21:03;;;;;;;7.63;5.83;;;;;9.40;96234.00;;;;8273186;28;20198;-72
2023/04/28 03:25:10;;;;;;;12.97;5.70;;;;;9.40;96218.00;;;;8292989;28;20202;-72
2023/04/28 03:29:13;;;;;;;8.40;5.27;;;;;9.40;96220.00;;;;8289528;28;20275;-72
2023/04/28 03:33:20;;;;;;;8.60;5.57;;;;;9.40;96207.00;;;;8289749;28;20229;-73
2023/04/28 03:37:26;;;;;;;12.10;5.50;;;;;9.40;96196.00;;;;8293646;28;20190;-72
2023/04/28 03:41:35;;;;;;;12.47;5.60;;;;;9.40;96198.00;;;;8288545;28;20198;-72
2023/04/28 03:45:40;;;;;;;7.60;5.50;;;;;9.40;96187.00;;;;8292791;28;20206;-71
2023/04/28 03:49:43;;;;;;;7.60;5.20;;;;;9.40;96194.00;;;;8290775;28;20651;-71
2023/04/28 03:53:48;;;;;;;8.10;5.20;;;;;9.40;96177.00;;;;8289948;28;20234;-72
2023/04/28 03:57:52;;;;;;;8.67;5.37;;;;;9.40;96171.00;;;;8291049;28;20233;-71
2023/04/28 04:01:57;;;;;;;9.60;5.67;;;;;9.40;96177.00;;;;8290119;28;20237;-71
2023/04/28 04:06:01;;;;;;;8.57;6.03;;;;;9.50;96183.00;;;;8289064;28;20268;-71
2023/04/28 04:10:06;;;;;;;11.57;5.50;;;;;9.60;96187.00;;;;8282131;28;20201;-69
2023/04/28 04:14:09;;;;;;;13.20;5.40;;;;;9.60;96194.00;;;;8286859;28;20598;-72
2023/04/28 04:18:13;;;;;;;10.83;5.40;;;;;9.70;96173.00;;;;8291896;28;20246;-71
2023/04/28 04:22:16;;;;;;;7.27;5.43;;;;;9.70;96166.00;;;;8286626;28;20207;-74
2023/04/28 04:26:22;;;;;;;6.90;4.77;;;;;9.80;96168.00;;;;8276893;28;20572;-70
2023/04/28 04:30:25;;;;;;;9.60;5.23;;;;;9.90;96174.00;;;;8290750;28;20198;-72
2023/04/28 04:34:30;;;;;;;8.53;4.63;;;;;9.90;96168.00;;;;8286303;28;20284;-72
2023/04/28 04:38:34;;;;;;;10.40;5.23;;;;;9.90;96148.00;;;;8283924;28;20194;-72
2023/04/28 04:42:39;;;;;;;9.33;4.83;;;;;10.00;96154.00;;;;8279844;28;20588;-72
2023/04/28 04:46:48;;;;;;;9.10;5.20;;;;;10.00;96157.00;;;;8274282;28;20203;-72
2023/04/28 04:50:52;;;;;;;7.23;4.73;;;;;10.10;96159.00;;;;8279671;28;20225;-72
2023/04/28 04:54:56;;;;;;;7.17;4.60;;;;;10.10;96156.00;;;;8282536;28;20873;-70
2023/04/28 04:59:00;;;;;;;10.50;4.63;;;;;10.20;96148.00;;;;8279794;28;20197;-71
2023/04/28 05:03:05;;;;;;;6.87;5.00;;;;;10.20;96130.00;;;;8277630;28;20293;-72
2023/04/28 05:07:08;;;;;;;8.90;4.93;;;;;10.40;96132.00;;;;8276466;28;20226;-71
2023/04/28 05:11:16;;;;;;;7.53;4.90;;;;;10.40;96145.00;;;;8278164;28;20756;-72
2023/04/28 05:15:24;;;;;;;6.53;4.80;;;;;10.50;96155.00;;;;8271435;28;20237;-72
2023/04/28 05:19:27;;;;;;;8.13;4.40;;;;;10.60;96158.00;;;;8280523;28;20249;-69
2023/04/28 05:23:31;;;;;;;10.13;5.00;;;;;10.70;96144.00;;;;8286109;28;20198;-72
2023/04/28 05:27:36;;;;;;;13.43;5.28;;;;;10.80;96140.00;;;;8285429;28;20276;-73
2023/04/28 05:31:46;;;;;;;8.33;4.83;;;;;10.90;96152.00;;;;8284636;28;20198;-73
2023/04/28 05:35:49;;;;;;;6.72;5.35;;;;;11.00;96155.00;;;;8279982;28;20229;-72
2023/04/28 05:39:54;;;;;;;8.70;5.30;;;;;11.10;96170.00;;;;8272273;28;20290;-73
2023/04/28 05:43:57;;;;;;;8.85;4.68;;;;;11.20;96176.00;;;;8274846;28;20250;-71
2023/04/28 05:48:07;;;;;;;12.90;5.70;;;;;11.20;96169.00;;;;8274865;28;20237;-73
2023/04/28 05:52:10;;;;;;;11.03;4.80;;;;;11.20;96172.00;;;;8271289;28;20202;-73
2023/04/28 05:56:14;;;;;;;10.80;5.18;;;;;11.30;96159.00;;;;8253440;28;20194;-73
2023/04/28 06:00:17;;;;;;;10.82;5.72;;;;;11.40;96162.00;;;;8266802;28;20292;-73
2023/04/28 06:04:24;;;;;;;7.88;5.05;;;;;11.50;96157.00;;;;8277240;28;20256;-72
2023/04/28 06:08:28;;;;;;;8.60;4.82;;;;;11.50;96156.00;;;;8277692;28;20571;-73
2023/04/28 06:12:34;;;;;;;14.50;5.32;;;;;11.50;96140.00;;;;8277040;28;20226;-73
2023/04/28 06:16:37;;;;;;;7.75;5.07;;;;;11.50;96144.00;;;;8270496;28;20704;-73
2023/04/28 06:20:41;;;;;;;7.05;5.30;;;;;11.60;96131.00;;;;8264808;28;20601;-73
2023/04/28 06:24:44;;;;;;;11.02;5.78;;;;;11.50;96129.00;;;;8274006;28;20208;-72
2023/04/28 06:28:47;;;;;;;9.90;6.05;;;;;11.60;96125.00;;;;8286141;28;20211;-70
2023/04/28 06:32:51;;;;;;;10.20;5.28;;;;;11.60;96132.00;;;;8284784;28;20259;-72
2023/04/28 06:36:55;;;;;;;10.65;5.65;;;;;11.60;96134.00;;;;8286070;28;20657;-72
2023/04/28 06:41:01;;;;;;;12.07;5.15;;;;;11.60;96149.00;;;;8283726;28;20788;-74
2023/04/28 06:45:08;;;;;;;9.15;5.40;;;;;11.60;96155.00;;;;8278257;28;20702;-74
2023/04/28 06:49:11;;;;;;;8.25;5.82;;;;;11.70;96171.00;;;;8289424;28;20854;-74
2023/04/28 06:53:21;;;;;;;12.35;6.15;;;;;11.70;96181.00;;;;8290926;28;20229;-74
2023/04/28 06:57:26;;;;;;;14.63;6.57;;;;;11.70;96190.00;;;;8293758;28;20203;-74
2023/04/28 07:01:31;;;;;;;9.87;5.97;;;;;11.70;96180.00;;;;8245210;28;1182912;-74
2023/04/28 07:05:35;;;;;;;11.90;6.57;;;;;11.70;96185.00;;;;8287686;28;20795;-73
2023/04/28 07:09:39;;;;;;;11.02;6.55;;;;;11.70;96185.00;;;;8286866;28;20205;-73
2023/04/28 07:13:42;;;;;;;9.05;6.18;;;;;11.50;96178.00;;;;8270715;28;20326;-74
2023/04/28 07:17:48;;;;;;;10.35;6.65;;;;;11.30;96172.00;;;;8277043;28;20194;-75
2023/04/28 07:21:51;;;;;;;14.13;6.93;;;;;11.20;96175.00;;;;8279626;28;20202;-77
2023/04/28 07:26:01;;;;;;;13.52;6.95;;;;;11.10;96177.00;;;;8282341;28;20296;-77
2023/04/28 07:30:12;;;;;;;12.70;7.35;;;;;11.00;96171.00;;;;8275799;28;20201;-77
2023/04/28 07:34:30;;;;;;;12.23;7.15;;;;;10.90;96160.00;;;;8285943;28;20224;-79
2023/04/28 07:38:40;;;;;;;10.07;7.30;;;;;10.90;96157.00;;;;8275591;28;20200;-79
2023/04/28 07:42:45;;;;;;;10.43;7.38;;;;;11.00;96155.00;;;;8262430;28;20683;-78
2023/04/28 07:46:49;;;;;;;13.48;7.80;;;;;10.90;96163.00;;;;8278775;28;20199;-79
2023/04/28 07:50:56;;;;;;;14.00;7.38;;;;;10.90;96167.00;;;;8283743;28;20206;-79
2023/04/28 07:55:03;;;;;;;15.18;7.70;;;;;11.00;96156.00;;;;8289461;28;20226;-77
2023/04/28 07:59:08;;;;;;;14.10;7.45;;;;;11.00;96152.00;;;;8283670;28;20206;-80
2023/04/28 08:03:14;;;;;;;17.33;7.88;;;;;11.10;96149.00;;;;8273858;28;20603;-80
2023/04/28 08:07:18;;;;;;;14.55;8.52;;;;;11.00;96148.00;;;;8286546;28;20205;-79
2023/04/28 08:11:21;;;;;;;14.40;8.13;;;;;11.00;96145.00;;;;8272749;28;20213;-79
2023/04/28 08:15:26;;;;;;;18.55;8.48;;;;;11.10;96145.00;;;;8273320;28;20927;-81
2023/04/28 08:19:29;;;;;;;16.70;8.80;;;;;11.10;96144.00;;;;8289820;28;20229;-80
2023/04/28 08:23:33;;;;;;;17.77;8.73;;;;;11.30;96138.00;;;;8290787;28;20575;-80
2023/04/28 08:27:38;;;;;;;15.30;9.00;;;;;11.40;96134.00;;;;8290159;28;20256;-80
2023/04/28 08:31:46;;;;;;;19.23;9.23;;;;;11.40;96140.00;;;;8272472;28;20206;-81
2023/04/28 08:35:50;;;;;;;18.30;9.32;;;;;11.40;96148.00;;;;8291233;28;20236;-81
2023/04/28 08:40:01;;;;;;;16.77;9.77;;;;;11.30;96136.00;;;;8287122;28;20675;-79
2023/04/28 08:44:10;;;;;;;18.15;9.10;;;;;11.40;96141.00;;;;8281237;28;20589;-76
2023/04/28 08:48:21;;;;;;;18.83;9.52;;;;;11.40;96154.00;;;;8283517;28;20277;-76
2023/04/28 08:52:29;;;;;;;18.15;9.77;;;;;11.40;96152.00;;;;8283926;28;20192;-76
2023/04/28 08:56:35;;;;;;;20.70;9.35;;;;;11.20;96152.00;;;;8285227;28;20226;-75
2023/04/28 09:00:38;;;;;;;24.30;10.15;;;;;11.20;96148.00;;;;8286768;28;20198;-76
2023/04/28 09:04:43;;;;;;;15.43;10.32;;;;;11.10;96156.00;;;;8288345;28;20244;-76
2023/04/28 09:08:49;;;;;;;20.35;10.30;;;;;11.10;96157.00;;;;8285471;28;20198;-74
2023/04/28 09:12:54;;;;;;;19.08;10.15;;;;;11.10;96155.00;;;;8282497;28;20210;-75
2023/04/28 09:17:09;;;;;;;22.40;10.50;;;;;11.10;96146.00;;;;8283209;28;20272;-73
2023/04/28 09:21:13;;;;;;;22.35;11.65;;;;;11.00;96139.00;;;;8282584;28;20200;-72
2023/04/28 09:25:20;;;;;;;22.63;12.73;;;;;11.10;96121.00;;;;8279357;28;20564;-73
2023/04/28 09:29:23;;;;;;;24.15;12.65;;;;;11.20;96108.00;;;;8282358;28;20202;-73
2023/04/28 09:33:26;;;;;;;23.25;12.18;;;;;11.20;96094.00;;;;8281520;28;20217;-72
2023/04/28 09:37:31;;;;;;;23.83;11.75;;;;;11.30;96100.00;;;;8282430;28;20199;-73
2023/04/28 09:41:39;;;;;;;21.50;11.45;;;;;11.30;96088.00;;;;8279317;28;20217;-72
2023/04/28 09:45:46;;;;;;;22.35;12.52;;;;;11.40;96087.00;;;;8280750;28;20249;-73
2023/04/28 09:49:59;;;;;;;22.02;12.10;;;;;11.40;96083.00;;;;8286438;28;20281;-73
2023/04/28 09:54:04;;;;;;;23.48;12.90;;;;;11.40;96080.00;;;;8283666;28;20263;-72
2023/04/28 09:58:14;;;;;;;18.63;12.18;;;;;11.40;96073.00;;;;8272932;28;20260;-73
2023/04/28 10:02:20;;;;;;;20.30;12.45;;;;;11.30;96071.00;;;;8277955;28;20218;-72
2023/04/28 10:06:44;;;;;;;24.23;12.15;;;;;11.20;96078.00;;;;8275727;28;20547;-72
2023/04/28 10:10:51;;;;;;;20.33;12.50;;;;;11.20;96085.00;;;;8267503;28;20269;-72
2023/04/28 10:14:55;;;;;;;23.95;13.65;;;;;11.30;96072.00;;;;8273831;28;20230;-73
2023/04/28 10:18:59;;;;;;;27.75;14.43;;;;;11.20;96073.00;;;;8278824;28;20195;-72
2023/04/28 10:23:25;;;;;;;25.70;13.75;;;;;11.20;96077.00;;;;8266889;28;20219;-74
2023/04/28 10:27:31;;;;;;;24.85;13.13;;;;;11.20;96071.00;;;;8273891;28;20206;-73
2023/04/28 10:31:36;;;;;;;23.63;13.15;;;;;11.20;96068.00;;;;8264509;28;20199;-74
2023/04/28 10:35:46;;;;;;;28.88;13.85;;;;;11.10;96063.00;;;;8272947;28;20633;-73
2023/04/28 10:40:30;;;;;;;25.73;14.20;;;;;11.10;96057.00;;;;8269876;28;20211;-73
2023/04/28 10:44:44;;;;;;;37.22;15.30;;;;;11.20;96043.00;;;;8267991;28;20199;-74
2023/04/28 10:48:57;;;;;;;23.98;13.77;;;;;11.20;96033.00;;;;8266857;28;20252;-74
2023/04/28 10:53:03;;;;;;;20.58;12.70;;;;;11.30;96040.00;;;;8282187;28;20639;-74
2023/04/28 10:57:27;;;;;;;23.25;14.30;;;;;11.30;96035.00;;;;8287822;28;20219;-74
2023/04/28 11:01:33;;;;;;;27.13;14.65;;;;;11.50;96041.00;;;;8279577;28;20234;-74
2023/04/28 11:05:37;;;;;;;27.02;13.70;;;;;11.60;96029.00;;;;8280369;28;20228;-75
2023/04/28 11:09:52;;;;;;;21.30;13.05;;;;;11.70;96022.00;;;;8285278;28;20222;-75
2023/04/28 11:14:15;;;;;;;21.83;12.88;;;;;11.90;96016.00;;;;8284612;28;20842;-74
2023/04/28 11:18:22;;;;;;;21.65;12.85;;;;;12.30;96015.00;;;;8283363;28;20229;-73
2023/04/28 11:22:25;;;;;;;22.85;13.18;;;;;12.50;96007.00;;;;8282666;28;20206;-74
2023/04/28 11:26:29;;;;;;;17.70;11.23;;;;;12.60;96006.00;;;;8274257;28;20296;-74
2023/04/28 11:30:32;;;;;;;19.80;11.85;;;;;12.60;96019.00;;;;8283209;28;20204;-74
2023/04/28 11:34:37;;;;;;;18.65;11.65;;;;;12.70;96016.00;;;;8273492;28;20267;-75
2023/04/28 11:38:45;;;;;;;24.75;11.80;;;;;12.60;96026.00;;;;8286341;28;20270;-75
2023/04/28 11:42:52;;;;;;;22.38;13.77;;;;;12.80;96010.00;;;;8286517;28;20203;-75
2023/04/28 11:47:04;;;;;;;19.10;12.13;;;;;12.80;96017.00;;;;8286091;28;20280;-76
2023/04/28 11:51:32;;;;;;;19.45;12.27;;;;;12.70;96014.00;;;;8284715;28;20206;-78
2023/04/28 11:55:35;;;;;;;20.30;12.88;;;;;12.60;96012.00;;;;8292489;28;20267;-76
2023/04/28 11:59:42;;;;;;;20.15;13.52;;;;;12.70;96017.00;;;;8289278;28;20202;-76
2023/04/28 12:03:47;;;;;;;24.48;13.85;;;;;12.80;96023.00;;;;8289231;28;20711;-78
2023/04/28 12:07:52;;;;;;;22.98;13.57;;;;;12.90;96027.00;;;;8282957;28;20282;-79
2023/04/28 12:11:56;;;;;;;18.10;12.43;;;;;12.90;96020.00;;;;8278723;28;20748;-77
2023/04/28 12:16:05;;;;;;;23.00;13.40;;;;;13.10;96030.00;;;;8282034;28;20268;-77
2023/04/28 12:20:11;;;;;;;19.38;12.35;;;;;13.30;96033.00;;;;8277111;28;20217;-78
2023/04/28 12:24:24;;;;;;;19.52;13.45;;;;;13.30;96033.00;;;;8281715;28;20271;-76
2023/04/28 12:28:37;;;;;;;20.63;13.13;;;;;13.30;96041.00;;;;8264038;28;20196;-76
2023/04/28 12:32:42;;;;;;;26.63;15.70;;;;;13.30;96038.00;;;;8288398;28;20206;-76
2023/04/28 12:36:48;;;;;;;26.35;15.15;;;;;13.40;96045.00;;;;8290477;28;20237;-75
2023/04/28 12:40:53;;;;;;;25.50;14.70;;;;;13.50;96037.00;;;;8286200;28;20240;-75
2023/04/28 12:44:56;;;;;;;23.52;14.20;;;;;13.60;96029.00;;;;8287776;28;20595;-72
2023/04/28 12:48:59;;;;;;;20.83;12.95;;;;;13.70;96028.00;;;;8284555;28;20194;-75
2023/04/28 12:53:05;;;;;;;19.25;12.48;;;;;13.70;96029.00;;;;8287328;28;20202;-75
2023/04/28 12:57:16;;;;;;;21.67;13.68;;;;;13.90;96020.00;;;;8265929;28;20234;-74
2023/04/28 13:01:19;;;;;;;27.80;16.85;;;;;14.00;96029.00;;;;8283645;28;20213;-75
2023/04/28 13:05:22;;;;;;;23.38;14.20;;;;;14.20;96018.00;;;;8265686;28;20233;-75
2023/04/28 13:09:26;;;;;;;37.75;20.85;;;;;14.30;96027.00;;;;8282373;28;20226;-75
2023/04/28 13:13:36;;;;;;;21.48;14.73;;;;;14.50;96016.00;;;;8283633;28;20191;-75
2023/04/28 13:17:41;;;;;;;18.38;12.75;;;;;14.50;96017.00;;;;8279578;28;20260;-77
2023/04/28 13:21:45;;;;;;;22.88;14.60;;;;;14.70;96004.00;;;;8286989;28;20202;-77
2023/04/28 13:25:51;;;;;;;22.15;14.90;;;;;14.90;95998.00;;;;8281403;28;20548;-78
2023/04/28 13:29:58;;;;;;;23.33;14.30;;;;;15.10;95986.00;;;;8284016;28;20217;-77
2023/04/28 13:34:04;;;;;;;24.00;14.95;;;;;15.20;95988.00;;;;8281882;28;20197;-77
2023/04/28 13:38:11;;;;;;;21.35;14.02;;;;;15.10;96000.00;;;;8287170;28;20577;-77
2023/04/28 13:42:15;;;;;;;23.10;14.63;;;;;15.00;95997.00;;;;8287613;28;20257;-77
2023/04/28 13:46:24;;;;;;;22.90;14.88;;;;;14.90;95990.00;;;;8268692;28;20253;-74
2023/04/28 13:50:29;;;;;;;33.47;20.02;;;;;14.90;95975.00;;;;8273036;28;20198;-77
2023/04/28 13:54:42;;;;;;;47.53;25.13;;;;;14.90;95983.00;;;;8277738;28;20705;-77
2023/04/28 13:58:48;;;;;;;20.52;14.05;;;;;14.90;95976.00;;;;8273382;28;20254;-77
2023/04/28 14:02:52;;;;;;;22.27;15.02;;;;;15.00;95979.00;;;;8287998;28;20225;-77
2023/04/28 14:06:55;;;;;;;23.80;15.05;;;;;15.20;95984.00;;;;8285027;28;20202;-75
2023/04/28 14:11:01;;;;;;;29.58;15.10;;;;;15.20;95992.00;;;;8285794;28;20206;-76
2023/04/28 14:15:04;;;;;;;23.17;15.27;;;;;15.30;95992.00;;;;8287574;28;20228;-76
2023/04/28 14:19:09;;;;;;;23.08;16.08;;;;;15.30;95985.00;;;;8282995;28;20253;-76
2023/04/28 14:23:14;;;;;;;25.30;14.85;;;;;15.30;95986.00;;;;8282580;28;20225;-78
2023/04/28 14:27:17;;;;;;;25.55;15.30;;;;;15.30;95974.00;;;;8283032;28;20297;-76
2023/04/28 14:31:22;;;;;;;29.00;16.70;;;;;15.40;95979.00;;;;8283706;28;20297;-77
2023/04/28 14:35:29;;;;;;;26.45;16.00;;;;;15.60;95954.00;;;;8283906;28;21414;-74
2023/04/28 14:39:38;;;;;;;22.50;15.30;;;;;15.80;95950.00;;;;8282584;28;20556;-78
2023/04/28 14:43:42;;;;;;;21.30;15.20;;;;;15.90;95955.00;;;;8273240;28;20205;-78
2023/04/28 14:47:49;;;;;;;24.63;16.42;;;;;15.90;95955.00;;;;8279433;28;20190;-80
2023/04/28 14:51:54;;;;;;;29.00;16.35;;;;;15.90;95953.00;;;;8278566;28;20198;-77
2023/04/28 14:55:58;;;;;;;22.13;15.63;;;;;16.00;95953.00;;;;8275224;28;20588;-78
2023/04/28 15:00:07;;;;;;;24.58;15.63;;;;;16.00;95946.00;;;;8271123;28;20203;-77
2023/04/28 15:04:11;;;;;;;23.50;14.85;;;;;15.90;95963.00;;;;8272919;28;20739;-78
2023/04/28 15:08:18;;;;;;;22.27;15.23;;;;;15.70;95963.00;;;;8283991;28;20583;-75
2023/04/28 15:12:21;;;;;;;23.80;14.98;;;;;15.50;95963.00;;;;8294303;28;20229;-79
2023/04/28 15:16:24;;;;;;;28.85;16.40;;;;;15.50;95944.00;;;;8290932;28;20257;-80
2023/04/28 15:20:29;;;;;;;29.02;17.38;;;;;15.40;95934.00;;;;8273698;28;20248;-77
2023/04/28 15:24:34;;;;;;;27.80;19.30;;;;;15.30;95921.00;;;;8293915;28;20206;-76
2023/04/28 15:28:38;;;;;;;28.58;16.90;;;;;15.20;95938.00;;;;8273419;28;20233;-76
2023/04/28 15:32:43;;;;;;;28.52;18.48;;;;;15.20;95918.00;;;;8290405;28;20198;-77
2023/04/28 15:36:49;;;;;;;30.48;18.48;;;;;15.10;95908.00;;;;8293707;28;20351;-76
2023/04/28 15:40:53;;;;;;;27.67;17.83;;;;;15.10;95915.00;;;;8292558;28;20544;-74
2023/04/28 15:44:57;;;;;;;33.97;18.83;;;;;15.00;95910.00;;;;8269090;28;20202;-74
2023/04/28 15:49:02;;;;;;;31.58;19.10;;;;;14.90;95914.00;;;;8290464;28;20695;-77
2023/04/28 15:53:10;;;;;;;31.02;19.60;;;;;14.70;95920.00;;;;8292186;28;20620;-76
2023/04/28 15:57:17;;;;;;;35.88;18.95;;;;;14.50;95926.00;;;;8289743;28;20991;-77
2023/04/28 16:01:23;;;;;;;32.40;19.27;;;;;14.40;95926.00;;;;8288981;28;20277;-75
2023/04/28 16:05:28;;;;;;;32.25;20.25;;;;;14.40;95933.00;;;;8292788;28;20559;-73
2023/04/28 16:09:32;;;;;;;33.83;20.23;;;;;14.40;95925.00;;;;8291652;28;20198;-76
2023/04/28 16:13:41;;;;;;;38.08;20.88;;;;;14.40;95922.00;;;;8290623;28;20584;-75
2023/04/28 16:17:44;;;;;;;31.60;17.90;;;;;14.30;95918.00;;;;8286874;28;20214;-76
2023/04/28 16:21:47;;;;;;;24.90;15.90;;;;;14.30;95923.00;;;;8289683;28;20209;-74
2023/04/28 16:25:52;;;;;;;25.02;14.52;;;;;14.30;95917.00;;;;8285622;28;20199;-75
2023/04/28 16:29:58;;;;;;;20.23;14.02;;;;;14.20;95917.00;;;;8285461;28;20257;-74
2023/04/28 16:34:02;;;;;;;24.88;14.65;;;;;14.20;95922.00;;;;8285380;28;20236;-72
2023/04/28 16:38:05;;;;;;;19.40;13.43;;;;;14.20;95921.00;;;;8291771;28;20221;-75
2023/04/28 16:42:10;;;;;;;22.23;13.75;;;;;14.20;95929.00;;;;8281242;28;20210;-75
2023/04/28 16:46:18;;;;;;;22.63;13.18;;;;;14.30;95925.00;;;;8288681;28;20320;-75
2023/04/28 16:50:23;;;;;;;43.85;23.20;;;;;14.30;95921.00;;;;8286464;28;20226;-76
2023/04/28 16:54:27;;;;;;;36.40;18.27;;;;;14.30;95907.00;;;;8283816;28;20208;-75
2023/04/28 16:58:30;;;;;;;28.30;14.85;;;;;14.30;95903.00;;;;8286418;28;20283;-76
2023/04/28 17:02:38;;;;;;;30.17;16.42;;;;;14.30;95921.00;;;;8285880;28;20236;-76
2023/04/28 17:06:42;;;;;;;37.00;17.38;;;;;14.20;95915.00;;;;8265652;28;20205;-76
2023/04/28 17:10:46;;;;;;;30.33;16.33;;;;;14.20;95897.00;;;;8280161;28;20791;-76
2023/04/28 17:14:50;;;;;;;35.05;16.75;;;;;14.10;95892.00;;;;8281695;28;20194;-74
2023/04/28 17:18:56;;;;;;;35.20;17.75;;;;;14.10;95900.00;;;;8266704;28;20230;-73
2023/04/28 17:22:59;;;;;;;33.25;17.90;;;;;14.00;95902.00;;;;8285568;28;20205;-73
2023/04/28 17:27:05;;;;;;;40.03;18.80;;;;;14.00;95887.00;;;;8271328;28;20720;-73
2023/04/28 17:31:09;;;;;;;40.83;19.40;;;;;13.90;95891.00;;;;8269300;28;20259;-73
2023/04/28 17:35:20;;;;;;;42.40;18.35;;;;;14.00;95900.00;;;;8266745;28;20293;-73
2023/04/28 17:39:23;;;;;;;41.15;18.77;;;;;14.00;95899.00;;;;8269234;28;20580;-72
2023/04/28 17:43:26;;;;;;;48.88;20.92;;;;;14.00;95912.00;;;;8286582;28;20552;-74
2023/04/28 17:47:32;;;;;;;46.05;19.77;;;;;14.00;95901.00;;;;8286462;28;20212;-73
2023/04/28 17:51:42;;;;;;;56.15;22.80;;;;;14.00;95913.00;;;;8285230;28;20631;-73
2023/04/28 17:55:49;;;;;;;49.58;20.20;;;;;13.90;95904.00;;;;8266015;28;20193;-73
2023/04/28 17:59:52;;;;;;;44.78;20.70;;;;;14.00;95902.00;;;;8285605;28;20260;-73
2023/04/28 18:03:58;;;;;;;57.15;22.35;;;;;14.00;95905.00;;;;8285709;28;20233;-73
2023/04/28 18:08:08;;;;;;;52.60;20.60;;;;;13.90;95907.00;;;;8280991;28;20202;-74
2023/04/28 18:12:13;;;;;;;45.10;18.95;;;;;13.90;95870.00;;;;8284055;28;20210;-74
2023/04/28 18:16:16;;;;;;;98.28;23.08;;;;;13.90;95888.00;;;;8274157;28;20202;-74
2023/04/28 18:20:20;;;;;;;80.72;29.15;;;;;13.80;95901.00;;;;8275433;28;20221;-73
2023/04/28 18:24:24;;;;;;;52.17;22.75;;;;;13.80;95898.00;;;;8274523;28;20269;-73
2023/04/28 18:28:28;;;;;;;66.05;26.98;;;;;13.90;95897.00;;;;8276659;28;20202;-73
2023/04/28 18:32:37;;;;;;;62.30;26.90;;;;;13.90;95904.00;;;;8270366;28;20213;-73
2023/04/28 18:36:42;;;;;;;45.92;22.23;;;;;14.00;95917.00;;;;8280797;28;20203;-74
2023/04/28 18:40:53;;;;;;;46.13;18.77;;;;;14.00;95910.00;;;;8273375;28;20201;-74
2023/04/28 18:44:57;;;;;;;45.67;19.73;;;;;13.90;95886.00;;;;8274934;28;20195;-74
2023/04/28 18:49:09;;;;;;;47.38;17.85;;;;;13.90;95871.00;;;;8268158;28;20194;-75
2023/04/28 18:53:12;;;;;;;37.42;16.00;;;;;13.90;95883.00;;;;8269356;28;20252;-75
2023/04/28 18:57:22;;;;;;;42.22;17.67;;;;;13.90;95907.00;;;;8278439;28;20230;-75
2023/04/28 19:01:26;;;;;;;50.95;18.85;;;;;13.80;95912.00;;;;8267436;28;20214;-77
2023/04/28 19:05:34;;;;;;;44.05;18.02;;;;;13.80;95923.00;;;;8286963;28;20204;-75
2023/04/28 19:09:40;;;;;;;53.97;19.50;;;;;13.90;95944.00;;;;8278131;28;20209;-75
2023/04/28 19:13:45;;;;;;;42.70;18.15;;;;;13.90;95958.00;;;;8285420;28;20239;-76
2023/04/28 19:17:48;;;;;;;53.70;19.15;;;;;14.00;95961.00;;;;8284668;28;20233;-75
2023/04/28 19:21:51;;;;;;;48.70;18.02;;;;;14.00;95973.00;;;;8286267;28;20226;-75
2023/04/28 19:25:56;;;;;;;71.35;23.52;;;;;14.00;95970.00;;;;8287423;28;20541;-76
2023/04/28 19:30:02;;;;;;;60.70;22.00;;;;;14.00;95958.00;;;;8269082;28;20205;-76
2023/04/28 19:34:08;;;;;;;72.22;21.73;;;;;14.00;95970.00;;;;8264926;28;20206;-76
2023/04/28 19:38:11;;;;;;;79.28;23.45;;;;;14.10;95971.00;;;;8264239;28;20280;-76
2023/04/28 19:42:19;;;;;;;81.38;23.50;;;;;14.00;95966.00;;;;8246274;28;20224;-76
2023/04/28 19:46:23;;;;;;;104.20;26.05;;;;;14.00;95956.00;;;;8265890;28;20623;-76
2023/04/28 19:50:27;;;;;;;96.22;26.92;;;;;14.00;95959.00;;;;8284219;28;20224;-76
2023/04/28 19:54:30;;;;;;;131.18;25.13;;;;;13.90;95956.00;;;;8290261;28;20190;-76
2023/04/28 19:58:33;;;;;;;51.08;19.63;;;;;13.80;95958.00;;;;8291800;28;20587;-76
2023/04/28 20:02:37;;;;;;;42.45;16.38;;;;;13.60;95961.00;;;;8289200;28;20237;-75
2023/04/28 20:06:41;;;;;;;35.60;13.68;;;;;13.40;95974.00;;;;8288859;28;20240;-76
2023/04/28 20:10:46;;;;;;;24.60;11.40;;;;;13.20;95976.00;;;;8292157;28;20197;-75